N207BZ EINN-KLGA
Flight info
| Callsign | N207BZ |
|---|---|
| Flight time | N/A |
| Altitude | 40000 |
| Route | ERABI3A ERABI DCT BEXET DCT DOGAL/M082F400 DCT 54N020W 54N030W 54N040W 52N050W DCT TUDEP/N0482F400 N526A TOPPS DCT BAF NOBBI5 |
| Aircraft | CL35/M-SDFGIRW/S |
Departure
| Time | 2026-05-04 06:34 |
|---|---|
| Airport | Shannon Airport (EINN) |
Arrival
| Time | N/A |
|---|---|
| Airport | LaGuardia Airport (KLGA) |
| Time | Latitude | Longitude | Altitude | Speed | Heading |
|---|---|---|---|---|---|
| 2026-05-04 05:58 | 52.69378 | -8.92281 | 17 ft | 0 kts | 185° |
| 2026-05-04 06:25 | 52.69506 | -8.92225 | 17 ft | 0 kts | 294° |
| 2026-05-04 06:28 | 52.69511 | -8.92242 | 19 ft | 5 kts | 294° |
| 2026-05-04 06:29 | 52.69536 | -8.92330 | 18 ft | 11 kts | 298° |
| 2026-05-04 06:29 | 52.69601 | -8.92446 | 18 ft | 16 kts | 316° |
| 2026-05-04 06:29 | 52.69692 | -8.92591 | 17 ft | 20 kts | 316° |
| 2026-05-04 06:29 | 52.69795 | -8.92757 | 18 ft | 23 kts | 316° |
| 2026-05-04 06:30 | 52.69901 | -8.92928 | 26 ft | 16 kts | 317° |
| 2026-05-04 06:30 | 52.69923 | -8.93065 | 34 ft | 14 kts | 244° |
| 2026-05-04 06:30 | 52.69855 | -8.93218 | 34 ft | 19 kts | 234° |
| 2026-05-04 06:30 | 52.69765 | -8.93415 | 35 ft | 24 kts | 232° |
| 2026-05-04 06:31 | 52.69651 | -8.93651 | 35 ft | 28 kts | 231° |
| 2026-05-04 06:31 | 52.69529 | -8.93902 | 40 ft | 28 kts | 233° |
| 2026-05-04 06:31 | 52.69410 | -8.94155 | 43 ft | 23 kts | 231° |
| 2026-05-04 06:31 | 52.69320 | -8.94241 | 39 ft | 16 kts | 206° |
| 2026-05-04 06:32 | 52.69305 | -8.94306 | 41 ft | 4 kts | 304° |
| 2026-05-04 06:33 | 52.69844 | -8.93255 | 35 ft | 156 kts | 51° |
| 2026-05-04 06:34 | 52.70652 | -8.91492 | 408 ft | 212 kts | 52° |
| 2026-05-04 06:34 | 52.71524 | -8.89422 | 1851 ft | 229 kts | 54° |
| 2026-05-04 06:34 | 52.72440 | -8.87168 | 3206 ft | 241 kts | 54° |
| 2026-05-04 06:34 | 52.73577 | -8.85170 | 4628 ft | 246 kts | 37° |
| 2026-05-04 06:35 | 52.75123 | -8.83874 | 5936 ft | 255 kts | 19° |
| 2026-05-04 06:36 | 52.84708 | -8.99092 | 12870 ft | 361 kts | 291° |
| 2026-05-04 06:37 | 52.85544 | -9.03095 | 13724 ft | 372 kts | 290° |
| 2026-05-04 06:37 | 52.86324 | -9.07191 | 14514 ft | 374 kts | 289° |
| 2026-05-04 06:37 | 52.87204 | -9.11232 | 15288 ft | 374 kts | 293° |
| 2026-05-04 06:37 | 52.88202 | -9.15208 | 16087 ft | 374 kts | 295° |
| 2026-05-04 06:38 | 52.89223 | -9.19154 | 16900 ft | 374 kts | 295° |
| 2026-05-04 06:38 | 52.90268 | -9.23096 | 17735 ft | 373 kts | 297° |
| 2026-05-04 06:40 | 52.97589 | -9.50291 | 23384 ft | 363 kts | 297° |
| 2026-05-04 06:40 | 52.98710 | -9.53994 | 24129 ft | 354 kts | 311° |
| 2026-05-04 06:40 | 53.00388 | -9.56873 | 24883 ft | 344 kts | 321° |
| 2026-05-04 06:40 | 53.01836 | -9.60067 | 25647 ft | 349 kts | 306° |
| 2026-05-04 06:41 | 53.03082 | -9.63542 | 26446 ft | 353 kts | 305° |
| 2026-05-04 06:41 | 53.04210 | -9.67222 | 27270 ft | 362 kts | 298° |
| 2026-05-04 06:41 | 53.05111 | -9.71176 | 28118 ft | 371 kts | 294° |
| 2026-05-04 06:41 | 53.05973 | -9.75258 | 28998 ft | 376 kts | 296° |
| 2026-05-04 06:42 | 53.06966 | -9.79302 | 29908 ft | 380 kts | 299° |
| 2026-05-04 06:42 | 53.08027 | -9.83354 | 30722 ft | 385 kts | 299° |
| 2026-05-04 06:42 | 53.09040 | -9.87515 | 31528 ft | 391 kts | 297° |
| 2026-05-04 06:44 | 53.16216 | -10.17381 | 37032 ft | 402 kts | 296° |
| 2026-05-04 06:44 | 53.16905 | -10.20244 | 37469 ft | 404 kts | 296° |
| 2026-05-04 06:44 | 53.17946 | -10.24612 | 38157 ft | 406 kts | 295° |
| 2026-05-04 06:45 | 53.18987 | -10.28994 | 38838 ft | 408 kts | 295° |
| 2026-05-04 06:45 | 53.20035 | -10.33395 | 39395 ft | 409 kts | 295° |
| 2026-05-04 06:45 | 53.21428 | -10.39248 | 40057 ft | 413 kts | 294° |
| 2026-05-04 06:45 | 53.22150 | -10.42289 | 40092 ft | 424 kts | 294° |
| 2026-05-04 06:46 | 53.23253 | -10.46948 | 40116 ft | 440 kts | 294° |
| 2026-05-04 06:46 | 53.24395 | -10.51786 | 40123 ft | 456 kts | 294° |
| 2026-05-04 06:46 | 53.26746 | -10.61805 | 40123 ft | 463 kts | 294° |
| 2026-05-04 06:48 | 53.34779 | -10.96306 | 40110 ft | 442 kts | 294° |
| 2026-05-04 06:48 | 53.35877 | -11.01070 | 40111 ft | 437 kts | 294° |
| 2026-05-04 06:50 | 53.44482 | -11.38748 | 40124 ft | 431 kts | 293° |
| 2026-05-04 06:51 | 53.46600 | -11.48131 | 40123 ft | 430 kts | 293° |
| 2026-05-04 06:51 | 53.48707 | -11.57500 | 40128 ft | 429 kts | 293° |
| 2026-05-04 06:52 | 53.50803 | -11.66869 | 40131 ft | 428 kts | 293° |
| 2026-05-04 06:52 | 53.52891 | -11.76239 | 40129 ft | 428 kts | 293° |
| 2026-05-04 06:53 | 53.54972 | -11.85622 | 40133 ft | 429 kts | 293° |
| 2026-05-04 06:53 | 53.57048 | -11.95024 | 40136 ft | 429 kts | 293° |
| 2026-05-04 06:54 | 53.59117 | -12.04437 | 40140 ft | 429 kts | 293° |
| 2026-05-04 06:54 | 53.61181 | -12.13869 | 40140 ft | 429 kts | 293° |
| 2026-05-04 06:55 | 53.63238 | -12.23316 | 40140 ft | 430 kts | 293° |
| 2026-05-04 06:55 | 53.65288 | -12.32771 | 40144 ft | 430 kts | 293° |
| 2026-05-04 06:57 | 53.73421 | -12.70718 | 40151 ft | 430 kts | 292° |
| 2026-05-04 06:58 | 53.75438 | -12.80240 | 40152 ft | 430 kts | 292° |
| 2026-05-04 06:58 | 53.77445 | -12.89762 | 40154 ft | 430 kts | 292° |
| 2026-05-04 06:59 | 53.79444 | -12.99289 | 40153 ft | 430 kts | 292° |
| 2026-05-04 06:59 | 53.81425 | -13.08772 | 40152 ft | 430 kts | 292° |
| 2026-05-04 07:01 | 53.89327 | -13.47068 | 40152 ft | 431 kts | 292° |
| 2026-05-04 07:02 | 53.91284 | -13.56667 | 40152 ft | 431 kts | 291° |
| 2026-05-04 07:02 | 53.93232 | -13.66265 | 40153 ft | 431 kts | 291° |
| 2026-05-04 07:03 | 53.95175 | -13.75885 | 40154 ft | 431 kts | 291° |
| 2026-05-04 07:03 | 53.97109 | -13.85516 | 40157 ft | 431 kts | 291° |
| 2026-05-04 07:04 | 53.99026 | -13.95169 | 40157 ft | 431 kts | 289° |
| 2026-05-04 07:04 | 54.00011 | -14.05247 | 40163 ft | 436 kts | 275° |
| 2026-05-04 07:05 | 54.00046 | -14.15561 | 40173 ft | 436 kts | 273° |
| 2026-05-04 07:05 | 54.00087 | -14.25874 | 40176 ft | 437 kts | 272° |
| 2026-05-04 07:06 | 54.00103 | -14.41359 | 40177 ft | 437 kts | 272° |
| 2026-05-04 07:07 | 54.00104 | -14.51691 | 40173 ft | 437 kts | 272° |
| 2026-05-04 07:09 | 54.00028 | -14.92990 | 40179 ft | 438 kts | 272° |
| 2026-05-04 07:09 | 54.00290 | -15.03290 | 40177 ft | 435 kts | 281° |
| 2026-05-04 07:10 | 54.01212 | -15.13448 | 40184 ft | 435 kts | 280° |
| 2026-05-04 07:12 | 54.04750 | -15.54187 | 40179 ft | 435 kts | 280° |
| 2026-05-04 07:12 | 54.05613 | -15.64390 | 40182 ft | 436 kts | 280° |
| 2026-05-04 07:13 | 54.06470 | -15.74592 | 40181 ft | 436 kts | 280° |
| 2026-05-04 07:13 | 54.07318 | -15.84806 | 40181 ft | 436 kts | 279° |
| 2026-05-04 07:14 | 54.09401 | -16.10360 | 40181 ft | 436 kts | 279° |
| 2026-05-04 07:15 | 54.10219 | -16.20596 | 40184 ft | 436 kts | 279° |
| 2026-05-04 07:15 | 54.11028 | -16.30819 | 40188 ft | 436 kts | 279° |
| 2026-05-04 07:16 | 54.11829 | -16.41056 | 40188 ft | 436 kts | 279° |
| 2026-05-04 07:16 | 54.12622 | -16.51293 | 40190 ft | 435 kts | 279° |
| 2026-05-04 07:17 | 54.13401 | -16.61514 | 40191 ft | 434 kts | 279° |
| 2026-05-04 07:17 | 54.14172 | -16.71715 | 40190 ft | 433 kts | 279° |
| 2026-05-04 07:18 | 54.14932 | -16.81869 | 40196 ft | 431 kts | 278° |
| 2026-05-04 07:18 | 54.15675 | -16.91946 | 40198 ft | 430 kts | 278° |
| 2026-05-04 07:19 | 54.16416 | -17.02060 | 40200 ft | 429 kts | 278° |
| 2026-05-04 07:19 | 54.17139 | -17.12149 | 40197 ft | 428 kts | 278° |
| 2026-05-04 07:20 | 54.17860 | -17.22222 | 40202 ft | 427 kts | 278° |
| 2026-05-04 07:20 | 54.18566 | -17.32272 | 40200 ft | 426 kts | 278° |
| 2026-05-04 07:22 | 54.21302 | -17.72331 | 40208 ft | 423 kts | 277° |
| 2026-05-04 07:23 | 54.21963 | -17.82312 | 40212 ft | 423 kts | 277° |
| 2026-05-04 07:23 | 54.22613 | -17.92293 | 40213 ft | 422 kts | 277° |
| 2026-05-04 07:24 | 54.23255 | -18.02249 | 40210 ft | 422 kts | 277° |
| 2026-05-04 07:24 | 54.23888 | -18.12207 | 40215 ft | 421 kts | 277° |
| 2026-05-04 07:26 | 54.26332 | -18.51959 | 40215 ft | 419 kts | 277° |
| 2026-05-04 07:27 | 54.26924 | -18.61872 | 40211 ft | 419 kts | 277° |
| 2026-05-04 07:27 | 54.27502 | -18.71778 | 40218 ft | 418 kts | 276° |
| 2026-05-04 07:28 | 54.28075 | -18.81682 | 40226 ft | 418 kts | 276° |
| 2026-05-04 07:28 | 54.28632 | -18.91513 | 40224 ft | 418 kts | 276° |
| 2026-05-04 07:29 | 54.29190 | -19.01399 | 40231 ft | 417 kts | 276° |
| 2026-05-04 07:29 | 54.29733 | -19.11286 | 40231 ft | 417 kts | 276° |
| 2026-05-04 07:30 | 54.30272 | -19.21168 | 40229 ft | 417 kts | 276° |
| 2026-05-04 07:30 | 54.30802 | -19.31040 | 40233 ft | 416 kts | 276° |
| 2026-05-04 07:31 | 54.31320 | -19.40913 | 40232 ft | 416 kts | 276° |
| 2026-05-04 07:33 | 54.33320 | -19.80353 | 40237 ft | 415 kts | 276° |
| 2026-05-04 07:33 | 54.33799 | -19.90216 | 40241 ft | 416 kts | 275° |
| 2026-05-04 07:34 | 54.34194 | -19.98485 | 40243 ft | 416 kts | 275° |
| 2026-05-04 07:34 | 54.34662 | -20.08394 | 40243 ft | 417 kts | 275° |
| 2026-05-04 07:35 | 54.35120 | -20.18324 | 40252 ft | 418 kts | 275° |
| 2026-05-04 07:35 | 54.35572 | -20.28256 | 40255 ft | 419 kts | 275° |
| 2026-05-04 07:36 | 54.36013 | -20.38148 | 40254 ft | 419 kts | 275° |
| 2026-05-04 07:38 | 54.37711 | -20.78098 | 40265 ft | 421 kts | 275° |
| 2026-05-04 07:38 | 54.38116 | -20.88106 | 40269 ft | 421 kts | 275° |
| 2026-05-04 07:39 | 54.38512 | -20.98126 | 40270 ft | 421 kts | 275° |
| 2026-05-04 07:39 | 54.38901 | -21.08153 | 40273 ft | 421 kts | 274° |
| 2026-05-04 07:40 | 54.39282 | -21.18186 | 40274 ft | 421 kts | 274° |
| 2026-05-04 07:40 | 54.39653 | -21.28213 | 40278 ft | 421 kts | 274° |
| 2026-05-04 07:41 | 54.40017 | -21.38260 | 40278 ft | 422 kts | 274° |
| 2026-05-04 07:41 | 54.40374 | -21.48305 | 40281 ft | 422 kts | 274° |
| 2026-05-04 07:42 | 54.40720 | -21.58355 | 40283 ft | 422 kts | 274° |